Time;durP1;ratioP1;P1;durP2;ratioP2;P2;SDS_P1;SDS_P2;PMS_P1;PMS_P2;Temp;Humidity;BMP_temperature;BMP_pressure;BME280_temperature;BME280_humidity;BME280_pressure;Samples;Min_cycle;Max_cycle;Signal;HPM_P1;HPM_P2
2023/11/22 00:00:07;;;;;;;7.18;4.68;;;17.50;65.80;;;;;;5064682;28;20039;-43
2023/11/22 00:02:33;;;;;;;6.18;3.90;;;17.50;65.90;;;;;;5063542;28;20063;-47
2023/11/22 00:04:58;;;;;;;7.35;3.50;;;17.40;65.80;;;;;;5058904;28;20124;-43
2023/11/22 00:07:24;;;;;;;4.18;3.17;;;17.40;65.90;;;;;;5062326;28;20063;-43
2023/11/22 00:09:49;;;;;;;5.75;3.05;;;17.40;65.90;;;;;;5062156;28;20131;-46
2023/11/22 00:12:17;;;;;;;6.20;3.50;;;17.40;65.90;;;;;;5059045;28;20033;-44
2023/11/22 00:14:42;;;;;;;6.43;3.80;;;17.40;65.90;;;;;;5058688;28;20056;-43
2023/11/22 00:17:08;;;;;;;5.95;3.28;;;17.40;65.90;;;;;;5056375;28;20053;-45
2023/11/22 00:19:33;;;;;;;5.78;3.25;;;17.40;65.90;;;;;;5058623;28;20480;-43
2023/11/22 00:21:59;;;;;;;6.07;3.90;;;17.40;65.90;;;;;;5058348;28;20040;-44
2023/11/22 00:24:24;;;;;;;5.43;3.25;;;17.30;65.90;;;;;;5056424;28;20106;-43
2023/11/22 00:26:50;;;;;;;4.60;3.70;;;17.30;66.60;;;;;;5056935;28;20032;-43
2023/11/22 00:29:15;;;;;;;4.70;3.60;;;17.30;65.90;;;;;;5054966;28;20033;-43
2023/11/22 00:31:41;;;;;;;5.18;3.20;;;17.30;66.00;;;;;;5056273;28;20037;-46
2023/11/22 00:34:06;;;;;;;4.93;3.00;;;17.30;66.00;;;;;;5039506;28;20028;-43
2023/11/22 00:36:32;;;;;;;5.18;3.55;;;17.30;66.10;;;;;;5060492;28;20053;-47
2023/11/22 00:38:57;;;;;;;6.22;3.70;;;17.30;66.10;;;;;;5060246;28;20067;-47
2023/11/22 00:41:23;;;;;;;4.72;2.88;;;17.30;66.10;;;;;;5059917;28;20031;-44
2023/11/22 00:43:48;;;;;;;4.57;3.15;;;17.30;66.10;;;;;;5058799;28;20040;-45
2023/11/22 00:46:14;;;;;;;5.35;2.90;;;17.30;66.70;;;;;;5060127;28;20016;-45
2023/11/22 00:48:40;;;;;;;4.38;3.17;;;17.30;66.10;;;;;;5063939;28;20025;-44
2023/11/22 00:51:08;;;;;;;6.68;2.78;;;17.20;66.10;;;;;;5065622;28;20318;-45
2023/11/22 00:53:36;;;;;;;5.82;3.60;;;17.30;66.10;;;;;;5063518;28;20045;-44
2023/11/22 00:56:02;;;;;;;4.03;2.72;;;17.20;66.10;;;;;;5063902;28;20024;-46
2023/11/22 00:58:28;;;;;;;3.58;2.63;;;17.20;66.10;;;;;;5063746;28;20048;-45
2023/11/22 01:00:53;;;;;;;3.70;3.08;;;17.20;66.10;;;;;;5063089;28;20029;-44
2023/11/22 01:03:19;;;;;;;4.70;2.72;;;17.20;66.20;;;;;;5063106;28;20032;-45
2023/11/22 01:05:46;;;;;;;4.28;3.08;;;17.20;66.20;;;;;;5063480;28;20021;-43
2023/11/22 01:08:13;;;;;;;4.60;3.00;;;17.20;66.10;;;;;;5063682;28;20024;-45
2023/11/22 01:10:39;;;;;;;3.50;2.70;;;17.20;66.20;;;;;;5044925;28;21120;-47
2023/11/22 01:13:05;;;;;;;5.70;3.28;;;17.20;66.20;;;;;;5063284;28;20033;-45
2023/11/22 01:15:30;;;;;;;4.20;3.13;;;17.20;66.20;;;;;;5062732;28;20024;-45
2023/11/22 01:17:56;;;;;;;3.60;2.63;;;17.10;66.20;;;;;;5045775;28;20283;-44
2023/11/22 01:20:23;;;;;;;3.63;2.78;;;17.20;66.20;;;;;;5063301;28;20028;-47
2023/11/22 01:22:48;;;;;;;3.60;2.80;;;17.10;66.20;;;;;;5062213;28;20032;-44
2023/11/22 01:25:14;;;;;;;5.18;3.10;;;17.10;66.20;;;;;;5062704;28;20044;-45
2023/11/22 01:27:39;;;;;;;3.15;2.45;;;17.10;66.20;;;;;;5062294;28;20101;-49
2023/11/22 01:30:07;;;;;;;3.65;2.60;;;17.10;66.20;;;;;;5063594;28;20504;-44
2023/11/22 01:32:34;;;;;;;4.13;3.08;;;17.10;66.30;;;;;;5062295;28;20101;-45
2023/11/22 01:35:00;;;;;;;3.45;2.45;;;17.10;66.30;;;;;;5061664;28;20044;-43
2023/11/22 01:37:26;;;;;;;3.90;3.28;;;17.10;66.20;;;;;;5044534;28;20155;-45
2023/11/22 01:39:54;;;;;;;3.47;2.55;;;17.10;66.30;;;;;;5059779;28;20436;-44
2023/11/22 01:42:20;;;;;;;4.53;2.90;;;17.10;66.30;;;;;;5058473;28;20697;-43
2023/11/22 01:44:47;;;;;;;3.92;2.75;;;17.10;66.30;;;;;;5056989;28;20040;-46
2023/11/22 01:47:14;;;;;;;5.10;2.65;;;17.10;66.30;;;;;;5059626;28;20505;-46
2023/11/22 01:49:40;;;;;;;3.70;2.58;;;17.10;66.30;;;;;;5057540;28;20041;-43
2023/11/22 01:52:06;;;;;;;4.90;3.15;;;17.10;66.30;;;;;;5057835;28;20033;-43
2023/11/22 01:54:33;;;;;;;4.72;3.00;;;17.10;66.30;;;;;;5055793;28;20033;-44
2023/11/22 01:56:59;;;;;;;4.40;2.90;;;17.00;66.20;;;;;;5057177;28;20029;-44
2023/11/22 01:59:27;;;;;;;3.95;2.92;;;17.10;66.30;;;;;;5057411;28;20040;-47
2023/11/22 02:01:54;;;;;;;4.32;3.20;;;17.00;66.20;;;;;;5055361;28;20039;-46
2023/11/22 02:04:20;;;;;;;3.00;2.58;;;17.00;66.20;;;;;;5053006;28;20505;-42
2023/11/22 02:06:46;;;;;;;3.85;2.65;;;17.00;66.30;;;;;;5037635;28;20081;-47
2023/11/22 02:09:15;;;;;;;4.28;3.08;;;17.00;66.30;;;;;;5055221;28;20032;-42
2023/11/22 02:11:42;;;;;;;3.70;2.90;;;17.00;66.30;;;;;;5057621;28;22012;-47
2023/11/22 02:14:08;;;;;;;3.88;3.08;;;17.00;66.30;;;;;;5058564;28;20029;-46
2023/11/22 02:16:34;;;;;;;5.05;3.35;;;17.00;66.30;;;;;;5058061;28;20055;-51
2023/11/22 02:19:00;;;;;;;3.00;2.50;;;17.00;67.00;;;;;;5058817;28;20093;-49
2023/11/22 02:21:26;;;;;;;3.40;2.63;;;17.00;66.30;;;;;;5052002;28;20463;-50
2023/11/22 02:23:51;;;;;;;3.10;2.58;;;17.00;66.40;;;;;;5055101;28;20067;-41
2023/11/22 02:26:20;;;;;;;3.60;2.50;;;17.00;66.30;;;;;;5055453;28;20154;-49
2023/11/22 02:28:45;;;;;;;3.17;2.85;;;17.00;66.30;;;;;;5039156;28;20021;-42
2023/11/22 02:31:11;;;;;;;3.10;2.72;;;17.00;66.30;;;;;;5061771;28;20025;-43
2023/11/22 02:33:36;;;;;;;4.80;2.67;;;17.00;66.40;;;;;;5061386;28;20033;-50
2023/11/22 02:36:02;;;;;;;4.03;3.17;;;17.00;66.40;;;;;;5062054;28;20052;-49
2023/11/22 02:38:28;;;;;;;2.55;2.30;;;17.00;66.40;;;;;;5061774;28;20044;-44
2023/11/22 02:40:54;;;;;;;4.00;2.92;;;16.90;66.30;;;;;;5060038;28;20401;-47
2023/11/22 02:43:20;;;;;;;3.67;2.90;;;16.90;66.30;;;;;;5061731;28;20182;-43
2023/11/22 02:45:45;;;;;;;3.53;2.95;;;17.00;66.40;;;;;;5042448;28;20025;-41
2023/11/22 02:48:11;;;;;;;3.83;2.45;;;16.90;66.40;;;;;;5061890;28;20066;-49
2023/11/22 02:50:37;;;;;;;3.40;2.80;;;16.90;66.30;;;;;;5061290;28;20033;-46
2023/11/22 02:53:03;;;;;;;4.10;2.75;;;16.90;66.40;;;;;;5061489;28;20401;-51
2023/11/22 02:55:29;;;;;;;4.05;2.58;;;16.90;66.40;;;;;;5061605;28;20042;-53
2023/11/22 02:57:55;;;;;;;3.10;2.45;;;16.90;66.40;;;;;;5061672;28;20032;-46
2023/11/22 03:00:21;;;;;;;3.05;2.75;;;16.90;66.40;;;;;;5055609;28;20674;-52
2023/11/22 03:02:47;;;;;;;3.08;2.47;;;16.90;66.40;;;;;;5054262;28;20028;-48
2023/11/22 03:05:14;;;;;;;4.18;2.92;;;16.90;66.50;;;;;;5037774;28;20047;-41
2023/11/22 03:07:41;;;;;;;3.33;2.95;;;16.90;66.40;;;;;;5054069;28;20041;-46
2023/11/22 03:10:07;;;;;;;3.58;2.35;;;16.90;66.40;;;;;;5054603;28;20090;-47
2023/11/22 03:12:45;;;;;;;4.03;2.47;;;16.90;66.40;;;;;;5053803;28;20156;-44
2023/11/22 03:15:11;;;;;;;3.33;2.75;;;16.90;66.40;;;;;;5041270;28;21593;-48
2023/11/22 03:17:38;;;;;;;3.38;3.08;;;16.90;66.50;;;;;;5052935;28;20089;-45
2023/11/22 03:20:08;;;;;;;4.28;2.72;;;16.90;66.50;;;;;;5052233;28;20047;-44
2023/11/22 03:22:35;;;;;;;4.30;2.72;;;16.80;66.40;;;;;;5033789;28;20489;-50
2023/11/22 03:25:02;;;;;;;3.92;2.75;;;16.90;66.50;;;;;;5050755;28;20406;-53
2023/11/22 03:27:27;;;;;;;3.20;2.75;;;16.80;66.40;;;;;;5054175;28;20028;-45
2023/11/22 03:29:53;;;;;;;3.53;2.92;;;16.90;66.50;;;;;;5056462;28;20036;-49
2023/11/22 03:32:18;;;;;;;2.83;2.42;;;16.80;66.40;;;;;;5036781;28;20037;-49
2023/11/22 03:34:44;;;;;;;2.92;2.50;;;16.80;66.40;;;;;;5056275;28;20031;-49
2023/11/22 03:37:10;;;;;;;3.20;2.63;;;16.80;66.50;;;;;;5057532;28;20321;-48
2023/11/22 03:39:36;;;;;;;2.92;2.63;;;16.80;66.40;;;;;;5056547;28;20032;-48
2023/11/22 03:42:02;;;;;;;3.22;2.75;;;16.80;66.50;;;;;;5057588;28;20029;-50
2023/11/22 03:44:27;;;;;;;3.83;3.42;;;16.80;66.40;;;;;;5056250;28;20682;-52
2023/11/22 03:46:53;;;;;;;3.35;2.63;;;16.90;66.40;;;;;;5058227;28;20104;-48
2023/11/22 03:49:19;;;;;;;3.33;2.90;;;17.10;65.90;;;;;;5056684;28;20025;-50
2023/11/22 03:51:46;;;;;;;2.70;2.30;;;17.30;65.20;;;;;;5056740;28;20521;-52
2023/11/22 03:54:12;;;;;;;3.72;2.70;;;17.70;64.30;;;;;;5039680;28;20035;-47
2023/11/22 03:56:38;;;;;;;2.90;2.60;;;18.10;63.50;;;;;;5064535;28;20036;-48
2023/11/22 03:59:03;;;;;;;3.22;2.72;;;18.50;62.60;;;;;;5064630;28;20047;-53
2023/11/22 04:01:29;;;;;;;2.47;2.15;;;18.90;61.70;;;;;;5063573;28;20021;-45
2023/11/22 04:03:54;;;;;;;3.03;2.60;;;19.20;60.80;;;;;;5063603;28;20048;-48
2023/11/22 04:06:20;;;;;;;2.92;2.55;;;19.50;60.30;;;;;;5066109;28;20025;-52
2023/11/22 04:08:46;;;;;;;3.67;2.75;;;19.70;59.70;;;;;;5065431;28;20576;-54
2023/11/22 04:11:12;;;;;;;2.60;2.40;;;20.00;59.40;;;;;;5066228;28;20028;-43
2023/11/22 04:13:38;;;;;;;2.55;2.25;;;20.20;58.90;;;;;;5065307;28;20021;-49
2023/11/22 04:16:08;;;;;;;2.50;2.10;;;20.40;58.50;;;;;;5065548;28;20044;-44
2023/11/22 04:18:37;;;;;;;2.53;2.20;;;20.50;58.20;;;;;;5064530;28;20021;-51
2023/11/22 04:21:04;;;;;;;3.25;2.80;;;20.60;58.20;;;;;;5059202;28;20029;-52
2023/11/22 04:23:33;;;;;;;3.47;2.53;;;20.50;58.20;;;;;;5047500;28;21126;-44
2023/11/22 04:26:00;;;;;;;3.22;2.35;;;20.50;58.50;;;;;;5064191;28;20452;-52
2023/11/22 04:28:26;;;;;;;2.47;2.28;;;20.40;58.60;;;;;;5045622;28;20052;-47
2023/11/22 04:30:52;;;;;;;3.85;2.17;;;20.30;58.90;;;;;;5060051;28;20024;-48
2023/11/22 04:33:18;;;;;;;3.83;2.45;;;20.20;59.20;;;;;;5060404;28;20107;-53
2023/11/22 04:35:44;;;;;;;2.55;2.28;;;20.10;59.50;;;;;;5059899;28;20904;-53
2023/11/22 04:38:10;;;;;;;3.15;2.30;;;20.00;59.70;;;;;;5061658;28;20120;-54
2023/11/22 04:40:35;;;;;;;3.03;2.42;;;19.90;60.00;;;;;;5062124;28;20056;-52
2023/11/22 04:43:02;;;;;;;3.47;2.22;;;19.80;60.20;;;;;;5059563;28;20029;-50
2023/11/22 04:45:27;;;;;;;2.40;2.20;;;19.70;60.40;;;;;;5054747;28;20543;-50
2023/11/22 04:47:53;;;;;;;2.50;2.20;;;19.60;60.70;;;;;;5059047;28;20029;-44
2023/11/22 04:50:18;;;;;;;3.28;2.38;;;19.50;60.90;;;;;;5057090;28;20054;-54
2023/11/22 04:52:44;;;;;;;2.55;2.15;;;19.40;61.10;;;;;;5055545;28;20029;-52
2023/11/22 04:55:09;;;;;;;2.97;2.28;;;19.30;61.40;;;;;;5055994;28;20032;-49
2023/11/22 04:57:35;;;;;;;4.53;2.70;;;19.20;61.40;;;;;;5054617;28;20032;-50
2023/11/22 05:00:01;;;;;;;2.67;2.08;;;19.20;61.70;;;;;;5059533;28;20490;-52
2023/11/22 05:02:27;;;;;;;3.17;2.53;;;19.10;62.50;;;;;;5060391;28;20036;-44
2023/11/22 05:04:53;;;;;;;2.53;2.33;;;19.00;61.90;;;;;;5063338;28;20060;-42
2023/11/22 05:07:22;;;;;;;2.70;2.22;;;18.90;62.10;;;;;;5064247;28;20029;-44
2023/11/22 05:09:47;;;;;;;3.95;3.17;;;18.90;62.40;;;;;;5063457;28;20488;-46
2023/11/22 05:12:14;;;;;;;2.75;2.30;;;18.80;62.60;;;;;;5063624;28;20039;-52
2023/11/22 05:14:40;;;;;;;3.15;2.85;;;18.80;62.80;;;;;;5063384;28;20393;-53
2023/11/22 05:17:06;;;;;;;2.83;2.53;;;18.70;63.00;;;;;;5063593;28;20029;-51
2023/11/22 05:19:31;;;;;;;3.30;2.70;;;18.60;63.20;;;;;;5063163;28;20055;-51
2023/11/22 05:21:57;;;;;;;3.47;3.00;;;18.50;63.40;;;;;;5062748;28;20060;-42
2023/11/22 05:24:23;;;;;;;4.45;3.10;;;18.50;63.60;;;;;;5062800;28;20133;-41
2023/11/22 05:26:49;;;;;;;4.55;2.83;;;18.40;63.70;;;;;;5061876;28;20118;-44
2023/11/22 05:29:14;;;;;;;5.80;3.22;;;18.40;63.80;;;;;;5062421;28;20119;-49
2023/11/22 05:31:40;;;;;;;3.95;2.78;;;18.30;63.90;;;;;;5062846;28;20067;-51
2023/11/22 05:34:05;;;;;;;2.97;2.70;;;18.30;64.10;;;;;;5061293;28;20044;-43
2023/11/22 05:36:31;;;;;;;4.25;3.30;;;18.20;64.00;;;;;;5044454;28;20036;-46
2023/11/22 05:38:59;;;;;;;3.78;2.97;;;18.20;64.00;;;;;;5043461;28;20124;-48
2023/11/22 05:41:26;;;;;;;5.13;2.85;;;18.20;64.00;;;;;;5062311;28;20035;-45
2023/11/22 05:43:52;;;;;;;4.28;2.67;;;18.20;64.10;;;;;;5043605;28;20518;-46
2023/11/22 05:46:21;;;;;;;3.67;2.90;;;18.10;64.00;;;;;;5062363;28;20024;-49
2023/11/22 05:48:49;;;;;;;4.50;2.90;;;18.10;64.00;;;;;;5061201;28;20029;-45
2023/11/22 05:51:15;;;;;;;5.10;3.40;;;18.10;64.10;;;;;;5057340;28;20518;-49
2023/11/22 05:53:41;;;;;;;3.70;3.00;;;18.10;64.10;;;;;;5059991;28;20033;-51
2023/11/22 05:56:08;;;;;;;5.95;3.25;;;18.00;64.10;;;;;;5061867;28;20842;-49
2023/11/22 05:58:34;;;;;;;5.88;3.78;;;18.00;64.80;;;;;;5061422;28;20017;-42
2023/11/22 06:01:00;;;;;;;6.10;3.22;;;17.90;64.20;;;;;;5055035;28;20055;-44
2023/11/22 06:03:25;;;;;;;5.32;3.88;;;17.90;64.30;;;;;;5053845;28;20111;-48
2023/11/22 06:05:51;;;;;;;5.45;4.03;;;17.90;64.50;;;;;;5054121;28;20418;-51
2023/11/22 06:08:16;;;;;;;5.18;3.65;;;17.90;64.40;;;;;;5056539;28;20032;-51
2023/11/22 06:10:42;;;;;;;5.35;3.35;;;17.80;64.40;;;;;;5055283;28;20048;-43
2023/11/22 06:13:08;;;;;;;4.03;3.60;;;17.80;64.40;;;;;;5059230;28;20033;-44
2023/11/22 06:15:34;;;;;;;7.20;4.25;;;17.80;64.50;;;;;;5058823;28;20055;-45
2023/11/22 06:17:59;;;;;;;3.95;3.08;;;17.70;64.50;;;;;;5057894;28;20071;-46
2023/11/22 06:20:26;;;;;;;5.13;3.45;;;17.70;64.70;;;;;;5057766;28;20044;-50
2023/11/22 06:22:52;;;;;;;5.57;3.47;;;17.70;64.80;;;;;;5054128;28;20032;-55
2023/11/22 06:25:18;;;;;;;3.42;3.10;;;17.70;64.90;;;;;;5038091;28;20206;-41
2023/11/22 06:27:43;;;;;;;4.47;3.38;;;17.60;65.00;;;;;;5055846;28;20037;-48
2023/11/22 06:30:09;;;;;;;4.95;3.42;;;17.60;65.00;;;;;;5055172;28;20029;-52
2023/11/22 06:32:35;;;;;;;4.57;3.05;;;17.60;65.00;;;;;;5055516;28;20032;-43
2023/11/22 06:35:01;;;;;;;5.07;3.47;;;17.60;65.10;;;;;;5060956;28;20138;-48
2023/11/22 06:37:27;;;;;;;6.65;3.92;;;17.60;65.20;;;;;;5060848;28;20020;-48
2023/11/22 06:39:52;;;;;;;5.47;3.60;;;17.50;65.20;;;;;;5061293;28;20105;-41
2023/11/22 06:42:22;;;;;;;4.97;3.53;;;17.50;65.30;;;;;;5061842;28;20133;-44
2023/11/22 06:44:52;;;;;;;4.95;3.50;;;17.50;65.30;;;;;;5043850;28;20489;-51
2023/11/22 06:47:21;;;;;;;3.30;3.00;;;17.50;65.30;;;;;;5062041;28;20020;-48
2023/11/22 06:49:46;;;;;;;5.07;3.40;;;17.50;65.40;;;;;;5061243;28;20408;-44
2023/11/22 06:52:12;;;;;;;6.22;4.05;;;17.40;65.40;;;;;;5061931;28;20043;-53
2023/11/22 06:54:38;;;;;;;6.00;3.78;;;17.40;65.40;;;;;;5062284;28;20696;-53
2023/11/22 06:57:03;;;;;;;6.45;3.78;;;17.40;65.50;;;;;;5061420;28;20036;-47
2023/11/22 06:59:29;;;;;;;8.63;3.88;;;17.40;65.40;;;;;;5061873;28;20482;-47
2023/11/22 07:01:55;;;;;;;6.88;4.53;;;17.40;65.50;;;;;;5062909;28;20498;-42
2023/11/22 07:04:22;;;;;;;7.97;4.80;;;17.40;65.50;;;;;;5059611;28;20092;-41
2023/11/22 07:06:49;;;;;;;4.95;3.78;;;17.30;65.50;;;;;;5061233;28;20139;-53
2023/11/22 07:09:14;;;;;;;6.10;4.65;;;17.30;65.50;;;;;;5065568;28;20036;-47
2023/11/22 07:11:41;;;;;;;6.57;3.90;;;17.30;65.50;;;;;;5065578;28;20265;-54
2023/11/22 07:14:06;;;;;;;7.05;4.70;;;17.30;65.50;;;;;;5065566;28;20493;-46
2023/11/22 07:16:33;;;;;;;6.88;4.40;;;17.30;65.60;;;;;;5066126;28;20090;-53
2023/11/22 07:19:00;;;;;;;8.00;4.82;;;17.30;65.60;;;;;;5065684;28;20025;-45
2023/11/22 07:21:26;;;;;;;7.75;4.50;;;17.30;65.60;;;;;;5065949;28;20370;-44
2023/11/22 07:23:52;;;;;;;8.32;5.05;;;17.30;65.60;;;;;;5064761;28;20037;-41
2023/11/22 07:26:17;;;;;;;6.00;4.57;;;17.30;65.60;;;;;;5064244;28;20064;-44
2023/11/22 07:28:43;;;;;;;6.80;4.70;;;17.20;65.60;;;;;;5063123;28;20528;-44
2023/11/22 07:31:09;;;;;;;6.53;5.03;;;17.20;65.70;;;;;;5063126;28;20115;-54
2023/11/22 07:33:35;;;;;;;9.32;4.68;;;17.20;65.60;;;;;;5041275;28;20230;-42
2023/11/22 07:36:02;;;;;;;8.02;4.85;;;17.20;65.70;;;;;;5060600;28;20537;-51
2023/11/22 07:38:29;;;;;;;8.85;5.40;;;17.20;65.70;;;;;;5058959;28;20493;-41
2023/11/22 07:40:56;;;;;;;6.63;4.90;;;17.20;65.70;;;;;;5040292;28;20129;-43
2023/11/22 07:43:21;;;;;;;7.80;5.65;;;17.20;65.70;;;;;;5033489;28;20084;-43
2023/11/22 07:45:48;;;;;;;8.95;5.95;;;17.20;65.70;;;;;;5053310;28;20032;-46
2023/11/22 07:48:14;;;;;;;8.15;5.35;;;17.20;65.80;;;;;;5056784;28;20121;-45
2023/11/22 07:50:43;;;;;;;11.00;6.28;;;17.20;65.70;;;;;;5055769;28;20472;-46
2023/11/22 07:53:11;;;;;;;7.18;5.45;;;17.10;65.70;;;;;;5060990;28;20394;-47
2023/11/22 07:55:41;;;;;;;8.10;5.18;;;17.20;65.80;;;;;;5060996;28;20044;-44
2023/11/22 07:58:07;;;;;;;9.07;6.20;;;17.10;65.70;;;;;;5060921;28;20509;-43
2023/11/22 08:00:41;;;;;;;6.50;4.97;;;17.10;65.70;;;;;;5064508;28;20183;-46
2023/11/22 08:03:07;;;;;;;6.75;5.30;;;17.10;65.80;;;;;;5058144;28;20039;-43
2023/11/22 08:05:36;;;;;;;9.35;5.60;;;17.10;65.80;;;;;;5064111;28;20112;-44
2023/11/22 08:08:06;;;;;;;8.10;6.10;;;17.10;65.80;;;;;;5059692;28;20646;-44
2023/11/22 08:10:32;;;;;;;7.68;5.55;;;17.10;65.80;;;;;;5064412;28;20039;-46
2023/11/22 08:12:57;;;;;;;7.85;5.40;;;17.00;65.70;;;;;;5059307;28;20029;-44
2023/11/22 08:15:23;;;;;;;8.63;5.22;;;17.00;65.80;;;;;;5064633;28;20566;-44
2023/11/22 08:17:48;;;;;;;8.15;5.85;;;17.10;65.90;;;;;;5060415;28;20041;-44
2023/11/22 08:20:17;;;;;;;9.13;5.35;;;17.00;65.90;;;;;;5063224;28;20039;-44
2023/11/22 08:22:45;;;;;;;8.32;5.15;;;17.00;65.90;;;;;;5045765;28;20032;-45
2023/11/22 08:25:15;;;;;;;7.40;5.10;;;17.00;65.90;;;;;;5063962;28;20033;-45
2023/11/22 08:27:41;;;;;;;8.85;5.15;;;17.00;65.90;;;;;;5062327;28;20036;-43
2023/11/22 08:30:12;;;;;;;8.82;5.28;;;17.00;66.60;;;;;;5057871;28;20139;-44
2023/11/22 08:32:39;;;;;;;6.07;4.65;;;17.00;65.90;;;;;;5059718;28;20044;-45
2023/11/22 08:35:07;;;;;;;7.07;5.20;;;17.00;65.90;;;;;;5059608;28;20037;-47
2023/11/22 08:37:35;;;;;;;8.25;5.88;;;17.00;65.90;;;;;;5057939;28;20115;-44
2023/11/22 08:40:01;;;;;;;6.75;4.55;;;17.00;66.00;;;;;;5058725;28;20028;-44
2023/11/22 08:42:26;;;;;;;7.93;5.55;;;17.00;66.00;;;;;;5056670;28;20024;-48
2023/11/22 08:44:52;;;;;;;8.57;5.25;;;16.90;66.00;;;;;;5057533;28;20360;-44
2023/11/22 08:47:17;;;;;;;6.15;4.90;;;16.90;65.90;;;;;;5041843;28;20432;-43
2023/11/22 08:49:43;;;;;;;6.50;4.55;;;16.90;66.00;;;;;;5051397;28;20086;-43
2023/11/22 08:52:09;;;;;;;8.43;5.40;;;16.90;66.00;;;;;;5056774;28;20064;-44
2023/11/22 08:54:34;;;;;;;5.68;4.63;;;16.90;66.00;;;;;;5053784;28;20063;-43
2023/11/22 08:57:00;;;;;;;6.80;4.88;;;16.90;66.00;;;;;;5058466;28;20166;-44
2023/11/22 08:59:26;;;;;;;7.70;5.07;;;16.90;66.00;;;;;;5058703;28;20121;-44
2023/11/22 09:01:52;;;;;;;6.32;4.72;;;16.90;66.00;;;;;;5057283;28;20105;-46
2023/11/22 09:04:18;;;;;;;7.35;4.78;;;16.90;66.60;;;;;;5059584;28;20456;-42
2023/11/22 09:06:44;;;;;;;7.45;5.50;;;16.90;66.00;;;;;;5055629;28;20062;-42
2023/11/22 09:09:15;;;;;;;6.22;5.05;;;16.90;66.00;;;;;;5055803;28;20157;-43
2023/11/22 09:11:40;;;;;;;7.13;5.40;;;16.90;66.00;;;;;;5054381;28;20029;-48
2023/11/22 09:14:06;;;;;;;6.95;5.43;;;16.80;66.00;;;;;;5052867;28;20033;-43
2023/11/22 09:16:36;;;;;;;7.88;5.13;;;16.90;66.10;;;;;;5052295;28;20021;-41
2023/11/22 09:19:03;;;;;;;8.20;4.82;;;16.80;66.00;;;;;;5057776;28;20020;-42
2023/11/22 09:21:29;;;;;;;6.82;4.47;;;16.80;66.00;;;;;;5054530;28;20025;-43
2023/11/22 09:23:54;;;;;;;6.93;5.00;;;16.80;66.10;;;;;;5056545;28;20469;-46
2023/11/22 09:26:20;;;;;;;9.13;5.80;;;16.80;66.00;;;;;;5060485;28;20079;-44
2023/11/22 09:28:46;;;;;;;6.50;4.90;;;16.80;66.10;;;;;;5060809;28;20093;-43
2023/11/22 09:31:17;;;;;;;6.85;4.88;;;16.80;66.00;;;;;;5060009;28;20040;-45
2023/11/22 09:33:43;;;;;;;7.28;4.85;;;16.80;66.10;;;;;;5058244;28;20033;-52
2023/11/22 09:36:09;;;;;;;6.40;4.57;;;16.80;66.10;;;;;;5061936;28;20020;-49
2023/11/22 09:38:34;;;;;;;7.47;5.95;;;16.80;66.10;;;;;;5058804;28;20044;-47
2023/11/22 09:41:02;;;;;;;6.43;4.43;;;16.80;66.10;;;;;;5058991;28;20021;-45
2023/11/22 09:43:28;;;;;;;6.22;4.70;;;16.80;66.10;;;;;;5061151;28;20503;-43
2023/11/22 09:45:54;;;;;;;7.38;4.82;;;16.80;66.10;;;;;;5060444;28;20644;-45
2023/11/22 09:48:23;;;;;;;6.03;4.78;;;16.90;65.90;;;;;;5062455;28;20025;-44
2023/11/22 09:51:05;;;;;;;7.32;4.60;;;17.10;65.50;;;;;;5061232;28;20039;-45
2023/11/22 09:53:36;;;;;;;8.45;4.82;;;17.40;64.60;;;;;;5058356;28;20032;-44
2023/11/22 09:56:04;;;;;;;5.88;4.43;;;17.70;63.80;;;;;;5061300;28;20033;-44
2023/11/22 09:58:34;;;;;;;6.70;4.70;;;18.20;62.90;;;;;;5060568;28;20110;-46
2023/11/22 10:01:01;;;;;;;5.32;4.18;;;18.50;62.00;;;;;;5052758;28;20059;-43
2023/11/22 10:03:30;;;;;;;5.95;4.50;;;18.80;61.30;;;;;;5058966;28;20028;-44
2023/11/22 10:05:59;;;;;;;6.05;4.53;;;19.10;60.70;;;;;;5055445;28;20039;-45
2023/11/22 10:08:29;;;;;;;5.70;4.00;;;19.30;60.10;;;;;;5058777;28;20032;-48
2023/11/22 10:10:55;;;;;;;6.18;4.68;;;19.60;59.70;;;;;;5056429;28;20047;-42
2023/11/22 10:13:22;;;;;;;5.10;3.97;;;19.70;59.30;;;;;;5054653;28;20047;-45
2023/11/22 10:15:49;;;;;;;6.55;4.50;;;19.80;59.80;;;;;;5057068;28;20040;-46
2023/11/22 10:18:15;;;;;;;5.55;3.78;;;20.00;58.90;;;;;;5055396;28;20033;-47
2023/11/22 10:20:42;;;;;;;4.88;3.63;;;20.10;58.60;;;;;;5028095;28;20064;-43
2023/11/22 10:23:13;;;;;;;5.25;3.97;;;20.20;58.50;;;;;;5037716;22;20487;-44
2023/11/22 10:25:51;;;;;;;5.80;3.92;;;20.10;58.60;;;;;;5052643;28;20509;-46
2023/11/22 10:28:17;;;;;;;5.72;3.92;;;20.10;58.80;;;;;;5077544;28;20785;-47
2023/11/22 10:30:45;;;;;;;6.25;4.00;;;20.00;59.00;;;;;;5085956;28;20471;-46
2023/11/22 10:33:13;;;;;;;6.75;4.07;;;19.90;59.30;;;;;;5057040;28;20036;-44
2023/11/22 10:35:45;;;;;;;5.28;4.03;;;19.80;59.50;;;;;;5066130;28;20127;-46
2023/11/22 10:38:17;;;;;;;6.35;4.00;;;19.70;59.70;;;;;;5076379;28;20161;-43
2023/11/22 10:40:44;;;;;;;5.35;3.83;;;19.60;60.00;;;;;;5074823;28;20092;-46
2023/11/22 10:43:11;;;;;;;5.20;3.80;;;19.50;60.20;;;;;;5074387;28;20040;-48
2023/11/22 10:45:38;;;;;;;4.22;3.72;;;19.40;60.50;;;;;;5074115;28;20056;-47
2023/11/22 10:48:05;;;;;;;5.28;3.60;;;19.40;60.70;;;;;;5059355;28;20104;-48
2023/11/22 10:50:31;;;;;;;7.35;4.40;;;19.30;61.00;;;;;;5078203;28;20165;-45
2023/11/22 10:53:00;;;;;;;6.63;4.50;;;19.20;61.10;;;;;;5077800;28;20040;-44
2023/11/22 10:55:31;;;;;;;5.78;4.05;;;19.10;61.30;;;;;;5077762;28;20032;-47
2023/11/22 10:58:01;;;;;;;5.13;4.20;;;19.00;61.40;;;;;;5076195;28;20156;-44
2023/11/22 11:00:28;;;;;;;5.72;3.83;;;19.00;61.70;;;;;;5074556;28;20033;-47
2023/11/22 11:03:07;;;;;;;4.85;4.05;;;18.90;61.80;;;;;;5056970;28;20043;-45
2023/11/22 11:05:34;;;;;;;6.55;4.68;;;18.80;62.00;;;;;;5074736;28;20418;-43
2023/11/22 11:08:10;;;;;;;4.72;4.07;;;18.70;62.20;;;;;;5075579;28;20102;-43
2023/11/22 11:10:42;;;;;;;5.00;4.15;;;18.70;62.40;;;;;;5075197;28;20500;-44
2023/11/22 11:13:13;;;;;;;6.68;3.88;;;18.60;62.60;;;;;;5074573;28;20052;-45
2023/11/22 11:15:39;;;;;;;6.10;4.20;;;18.50;62.70;;;;;;5076605;28;20043;-44
2023/11/22 11:18:10;;;;;;;6.45;3.83;;;18.50;63.10;;;;;;5074372;28;20068;-41
2023/11/22 11:20:53;;;;;;;5.57;4.25;;;18.40;63.30;;;;;;5053384;28;20113;-44
2023/11/22 11:23:24;;;;;;;5.20;4.00;;;18.30;63.40;;;;;;5068303;28;20032;-45
2023/11/22 11:25:53;;;;;;;5.63;4.32;;;18.30;63.60;;;;;;5074999;28;20146;-47
2023/11/22 11:28:19;;;;;;;6.50;4.80;;;18.20;63.80;;;;;;5074629;28;20085;-44
2023/11/22 11:30:48;;;;;;;6.18;4.30;;;18.20;63.80;;;;;;5074151;28;20452;-43
2023/11/22 11:33:18;;;;;;;4.53;4.07;;;18.20;63.90;;;;;;5073221;28;20032;-43
2023/11/22 11:35:46;;;;;;;5.80;3.95;;;18.10;63.90;;;;;;5076107;28;20112;-42
2023/11/22 11:38:19;;;;;;;4.88;4.13;;;18.10;63.90;;;;;;5076459;28;20024;-43
2023/11/22 11:40:49;;;;;;;6.90;4.50;;;18.00;63.80;;;;;;5075697;28;20032;-42
2023/11/22 11:43:20;;;;;;;4.43;3.83;;;18.00;63.80;;;;;;5057820;28;20536;-45
2023/11/22 11:45:46;;;;;;;5.72;4.05;;;18.00;63.90;;;;;;5075211;28;20426;-46
2023/11/22 11:48:16;;;;;;;5.97;5.05;;;17.90;64.10;;;;;;5079178;28;20517;-46
2023/11/22 11:50:43;;;;;;;5.55;4.22;;;17.90;63.90;;;;;;5083452;28;20036;-47
2023/11/22 11:53:12;;;;;;;6.40;3.97;;;17.90;64.00;;;;;;5083696;28;20461;-43
2023/11/22 11:55:38;;;;;;;7.63;4.07;;;17.90;64.10;;;;;;5086622;28;20043;-46
2023/11/22 11:58:10;;;;;;;6.25;4.05;;;17.80;64.90;;;;;;5084655;28;20031;-43
2023/11/22 12:00:40;;;;;;;5.13;3.85;;;17.80;64.20;;;;;;5087676;28;20039;-41
2023/11/22 12:03:07;;;;;;;5.95;4.40;;;17.70;64.30;;;;;;5083309;28;20085;-45
2023/11/22 12:05:33;;;;;;;5.82;4.32;;;17.70;64.30;;;;;;5086857;28;20027;-45
2023/11/22 12:07:58;;;;;;;7.35;4.35;;;17.70;64.40;;;;;;5065576;28;20024;-44
2023/11/22 12:10:24;;;;;;;4.85;3.78;;;17.70;64.50;;;;;;5088088;28;20060;-43
2023/11/22 12:12:50;;;;;;;6.32;4.00;;;17.60;64.50;;;;;;5087353;28;20036;-45
2023/11/22 12:15:16;;;;;;;5.43;4.35;;;17.60;64.50;;;;;;5083937;28;20027;-43
2023/11/22 12:17:41;;;;;;;6.32;4.70;;;17.60;64.70;;;;;;5065625;28;20042;-43
2023/11/22 12:20:17;;;;;;;5.97;4.43;;;17.50;64.70;;;;;;5083940;28;20032;-45
2023/11/22 12:22:44;;;;;;;4.68;3.83;;;17.60;64.80;;;;;;5084702;28;20043;-45
2023/11/22 12:25:11;;;;;;;5.55;4.65;;;17.50;65.00;;;;;;5068884;28;20044;-42
2023/11/22 12:27:41;;;;;;;4.82;4.07;;;17.50;65.00;;;;;;5083774;28;20035;-45
2023/11/22 12:30:27;;;;;;;4.60;3.78;;;17.50;65.00;;;;;;5084737;28;20028;-43
2023/11/22 12:32:53;;;;;;;5.63;4.40;;;17.50;65.00;;;;;;5076660;28;20066;-50
2023/11/22 12:35:18;;;;;;;5.38;4.07;;;17.50;65.10;;;;;;5079306;28;20168;-46
2023/11/22 12:37:44;;;;;;;4.47;3.88;;;17.40;65.20;;;;;;5078557;28;20115;-44
2023/11/22 12:40:10;;;;;;;6.03;4.57;;;17.40;65.20;;;;;;5080368;28;20145;-42
2023/11/22 12:42:49;;;;;;;6.43;4.50;;;17.40;65.20;;;;;;5079317;28;20061;-45
2023/11/22 12:45:23;;;;;;;5.72;4.28;;;17.30;65.20;;;;;;5068579;28;20450;-45